Time;durP1;ratioP1;P1;durP2;ratioP2;P2;SDS_P1;SDS_P2;PMS_P1;PMS_P2;Temp;Humidity;BMP_temperature;BMP_pressure;BME280_temperature;BME280_humidity;BME280_pressure;Samples;Min_cycle;Max_cycle;Signal;HPM_P1;HPM_P2
2023/01/20 00:01:03;;;;;;;7.88;2.40;;;0.30;99.90;;;;;;5098196;28;20043;-81
2023/01/20 00:03:29;;;;;;;4.25;1.83;;;0.20;99.90;;;;;;5098450;28;20071;-81
2023/01/20 00:05:55;;;;;;;3.90;1.80;;;0.20;99.90;;;;;;5115270;28;20485;-81
2023/01/20 00:08:20;;;;;;;4.80;2.30;;;0.20;99.90;;;;;;5114702;28;20044;-82
2023/01/20 00:10:46;;;;;;;3.83;1.90;;;0.20;99.90;;;;;;5115250;28;20092;-80
2023/01/20 00:13:12;;;;;;;3.03;2.13;;;0.20;99.90;;;;;;5114687;28;20066;-80
2023/01/20 00:15:37;;;;;;;5.70;1.83;;;0.20;99.90;;;;;;5097875;28;20051;-80
2023/01/20 00:18:03;;;;;;;4.20;1.90;;;0.20;99.90;;;;;;5114829;28;20058;-80
2023/01/20 00:20:29;;;;;;;3.50;1.80;;;0.20;99.90;;;;;;5081241;28;20040;-81
2023/01/20 00:22:55;;;;;;;3.30;2.17;;;0.10;99.90;;;;;;5098023;28;20133;-80
2023/01/20 00:25:20;;;;;;;5.10;2.08;;;0.20;99.90;;;;;;5114684;28;20050;-81
2023/01/20 00:27:46;;;;;;;2.45;1.60;;;1.10;99.90;;;;;;5114596;28;20040;-81
2023/01/20 00:30:12;;;;;;;4.30;1.90;;;1.20;99.90;;;;;;5114657;28;20043;-81
2023/01/20 00:32:44;;;;;;;3.72;1.98;;;0.10;99.90;;;;;;5114546;28;20050;-81
2023/01/20 00:35:11;;;;;;;3.38;1.90;;;0.70;99.90;;;;;;5098371;28;20096;-81
2023/01/20 00:37:37;;;;;;;4.03;2.03;;;0.00;99.90;;;;;;5114578;28;20057;-81
2023/01/20 00:40:04;;;;;;;4.25;2.08;;;0.60;99.90;;;;;;5097532;28;20083;-80
2023/01/20 00:42:30;;;;;;;7.22;2.30;;;-0.10;99.90;;;;;;5114251;28;20054;-81
2023/01/20 00:44:56;;;;;;;4.47;2.38;;;-0.20;99.90;;;;;;5114469;28;20089;-81
2023/01/20 00:47:21;;;;;;;4.10;2.05;;;0.80;99.90;;;;;;5114323;28;20075;-81
2023/01/20 00:49:47;;;;;;;4.65;2.03;;;0.80;99.90;;;;;;5114470;28;20122;-82
2023/01/20 00:52:13;;;;;;;3.92;2.30;;;0.60;99.90;;;;;;5113944;28;20093;-80
2023/01/20 00:54:39;;;;;;;3.33;2.00;;;-0.30;99.90;;;;;;5079819;28;20480;-81
2023/01/20 00:57:05;;;;;;;3.13;1.80;;;-0.20;99.90;;;;;;5114294;28;20096;-81
2023/01/20 00:59:31;;;;;;;4.20;2.17;;;0.30;99.90;;;;;;5114288;28;20086;-82
2023/01/20 01:01:57;;;;;;;6.22;2.38;;;-0.20;99.90;;;;;;5097236;28;20082;-81
2023/01/20 01:04:22;;;;;;;4.60;2.58;;;-0.30;99.90;;;;;;5113777;28;20534;-81
2023/01/20 01:06:51;;;;;;;4.43;2.45;;;-0.30;99.90;;;;;;5080334;28;20043;-81
2023/01/20 01:09:17;;;;;;;10.13;2.97;;;-0.30;99.90;;;;;;5114007;28;20035;-81
2023/01/20 01:11:43;;;;;;;7.03;3.65;;;0.30;99.90;;;;;;5096921;28;20506;-81
2023/01/20 01:14:08;;;;;;;7.45;3.38;;;0.30;99.90;;;;;;5096876;28;20487;-81
2023/01/20 01:16:35;;;;;;;4.47;2.45;;;-0.20;99.90;;;;;;5096546;28;20044;-81
2023/01/20 01:19:00;;;;;;;6.97;2.83;;;-0.30;99.90;;;;;;5113862;28;20099;-81
2023/01/20 01:21:26;;;;;;;6.45;3.33;;;-0.20;99.90;;;;;;5079814;28;20122;-81
2023/01/20 01:23:52;;;;;;;8.93;3.80;;;-0.20;99.90;;;;;;5096712;28;20068;-81
2023/01/20 01:26:18;;;;;;;11.77;4.30;;;-0.10;99.90;;;;;;5096515;28;20051;-82
2023/01/20 01:28:47;;;;;;;8.32;3.63;;;-0.20;99.90;;;;;;5096433;28;20037;-82
2023/01/20 01:31:13;;;;;;;7.00;4.18;;;-0.10;99.90;;;;;;5096401;28;20031;-81
2023/01/20 01:33:39;;;;;;;6.55;3.35;;;0.80;99.90;;;;;;5096653;28;20352;-81
2023/01/20 01:36:07;;;;;;;9.90;4.35;;;0.80;99.90;;;;;;5096267;28;20092;-82
2023/01/20 01:38:33;;;;;;;7.93;3.58;;;0.00;99.90;;;;;;5096458;28;20043;-81
2023/01/20 01:40:59;;;;;;;10.05;4.40;;;0.00;99.90;;;;;;5113430;28;20039;-80
2023/01/20 01:43:31;;;;;;;8.70;4.63;;;0.10;99.90;;;;;;5113299;28;20047;-82
2023/01/20 01:45:57;;;;;;;10.70;5.10;;;0.10;99.90;;;;;;5096306;28;20049;-82
2023/01/20 01:48:27;;;;;;;11.65;5.18;;;0.20;99.90;;;;;;5096285;28;20107;-81
2023/01/20 01:51:02;;;;;;;7.63;3.95;;;0.80;99.90;;;;;;5096354;28;20097;-82
2023/01/20 01:53:32;;;;;;;13.63;6.40;;;1.20;99.90;;;;;;5095822;28;20544;-82
2023/01/20 01:56:01;;;;;;;15.25;6.93;;;0.90;99.90;;;;;;5113386;28;20054;-82
2023/01/20 01:58:32;;;;;;;15.55;6.30;;;0.70;99.90;;;;;;5096038;28;20094;-81
2023/01/20 02:00:58;;;;;;;;;;;1.50;99.90;;;;;;5113584;28;20116;-82
2023/01/20 02:03:34;;;;;;;12.50;5.22;;;0.40;99.90;;;;;;5112844;28;20390;-82
2023/01/20 02:06:01;;;;;;;12.85;6.25;;;0.60;99.90;;;;;;5111904;28;20043;-82
2023/01/20 02:08:27;;;;;;;15.73;6.53;;;1.00;99.90;;;;;;5095783;28;20039;-81
2023/01/20 02:10:52;;;;;;;12.38;5.97;;;0.60;99.90;;;;;;5112956;28;20083;-81
2023/01/20 02:13:18;;;;;;;14.02;6.13;;;0.70;99.90;;;;;;5112388;28;20039;-81
2023/01/20 02:16:11;;;;;;;15.50;7.25;;;1.30;99.90;;;;;;5112274;28;20353;-82
2023/01/20 02:19:15;;;;;;;15.73;6.78;;;0.50;99.90;;;;;;5073762;28;20181;-81
2023/01/20 02:21:54;;;;;;;17.95;7.15;;;0.50;99.90;;;;;;5095582;28;20035;-81
2023/01/20 02:24:50;;;;;;;19.48;6.88;;;1.10;99.90;;;;;;5095607;28;20139;-82
2023/01/20 02:27:29;;;;;;;22.63;8.35;;;0.50;99.90;;;;;;5112723;28;20035;-82
2023/01/20 02:30:20;;;;;;;16.95;7.40;;;0.50;99.90;;;;;;5112629;28;20035;-81
2023/01/20 02:33:01;;;;;;;16.13;7.47;;;0.40;99.90;;;;;;5112465;28;20039;-82
2023/01/20 02:35:36;;;;;;;21.13;7.75;;;0.50;99.90;;;;;;5112618;28;20074;-82
2023/01/20 02:38:22;;;;;;;23.25;8.75;;;0.40;99.90;;;;;;5112350;28;20074;-82
2023/01/20 02:41:06;;;;;;;20.33;8.35;;;0.80;99.90;;;;;;5112697;28;20046;-83
2023/01/20 02:43:47;;;;;;;17.45;7.68;;;0.40;99.90;;;;;;5095452;28;20375;-82
2023/01/20 02:46:35;;;;;;;20.17;9.05;;;0.40;99.90;;;;;;5112631;28;20638;-82
2023/01/20 02:49:25;;;;;;;15.95;6.82;;;0.40;99.90;;;;;;5095606;28;20050;-81
2023/01/20 02:51:58;;;;;;;24.17;8.68;;;0.40;99.90;;;;;;5112404;28;20032;-82
2023/01/20 02:54:28;;;;;;;21.95;9.02;;;1.10;99.90;;;;;;5095315;28;20448;-82
2023/01/20 02:56:57;;;;;;;21.90;8.25;;;0.80;99.90;;;;;;5095149;28;20054;-82
2023/01/20 02:59:26;;;;;;;18.10;7.05;;;0.50;99.90;;;;;;5112301;28;20032;-84
2023/01/20 03:02:06;;;;;;;23.65;9.15;;;0.70;99.90;;;;;;5112245;28;20040;-82
2023/01/20 03:04:40;;;;;;;20.75;8.57;;;0.80;99.90;;;;;;5112304;28;20047;-81
2023/01/20 03:07:08;;;;;;;15.52;6.28;;;0.60;99.90;;;;;;5095407;28;20051;-82
2023/01/20 03:09:44;;;;;;;22.88;9.32;;;1.50;99.90;;;;;;5112221;28;20039;-82
2023/01/20 03:12:21;;;;;;;24.38;8.90;;;0.60;99.90;;;;;;5112245;28;20471;-81
2023/01/20 03:14:48;;;;;;;16.65;7.53;;;0.60;99.90;;;;;;5112261;28;20082;-82
2023/01/20 03:17:14;;;;;;;24.95;10.30;;;0.60;99.90;;;;;;5114071;28;20044;-82
2023/01/20 03:19:40;;;;;;;23.67;9.52;;;0.60;99.90;;;;;;5082179;28;20115;-82
2023/01/20 03:22:06;;;;;;;24.42;9.30;;;0.60;99.90;;;;;;5098897;28;20050;-82
2023/01/20 03:24:34;;;;;;;21.25;8.95;;;1.70;99.90;;;;;;5082139;28;20052;-82
2023/01/20 03:26:59;;;;;;;19.35;8.60;;;0.70;99.90;;;;;;5099128;28;20093;-82
2023/01/20 03:29:25;;;;;;;22.33;9.48;;;1.30;99.90;;;;;;5099031;28;20155;-82
2023/01/20 03:31:56;;;;;;;21.90;8.50;;;0.70;99.90;;;;;;5098704;28;20059;-82
2023/01/20 03:34:23;;;;;;;20.65;8.38;;;0.70;99.90;;;;;;5098952;28;20463;-82
2023/01/20 03:36:52;;;;;;;17.05;7.65;;;0.70;99.90;;;;;;5098699;28;20039;-82
2023/01/20 03:39:19;;;;;;;14.82;6.57;;;1.80;99.90;;;;;;5115898;28;20118;-81
2023/01/20 03:42:04;;;;;;;19.58;8.20;;;1.20;99.90;;;;;;5098689;28;20055;-82
2023/01/20 03:45:00;;;;;;;14.10;6.45;;;0.70;99.90;;;;;;5098273;28;20108;-82
2023/01/20 03:47:49;;;;;;;15.40;6.97;;;0.70;99.90;;;;;;5098777;28;20052;-82
2023/01/20 03:50:36;;;;;;;22.08;8.88;;;0.70;99.90;;;;;;5115304;28;20468;-82
2023/01/20 03:53:01;;;;;;;21.55;9.05;;;0.70;99.90;;;;;;5115255;28;20357;-82
2023/01/20 03:55:49;;;;;;;18.73;8.70;;;1.60;99.90;;;;;;5115475;28;20151;-82
2023/01/20 03:58:20;;;;;;;17.80;7.38;;;0.70;99.90;;;;;;5115722;28;20436;-82
2023/01/20 04:00:48;;;;;;;25.60;9.52;;;1.80;99.90;;;;;;5115141;28;20044;-82
2023/01/20 04:03:28;;;;;;;23.00;8.95;;;0.80;99.90;;;;;;5115317;28;20047;-82
2023/01/20 04:05:57;;;;;;;21.50;10.20;;;0.70;99.90;;;;;;5098254;28;20130;-81
2023/01/20 04:08:28;;;;;;;20.63;8.35;;;0.90;99.90;;;;;;5115245;28;20031;-82
2023/01/20 04:10:56;;;;;;;23.50;10.20;;;0.70;99.90;;;;;;5098084;28;20043;-83
2023/01/20 04:13:22;;;;;;;24.77;9.60;;;1.80;99.90;;;;;;5097910;28;20043;-83
2023/01/20 04:15:48;;;;;;;23.65;10.50;;;0.70;99.90;;;;;;5080546;28;20059;-83
2023/01/20 04:18:17;;;;;;;29.23;10.60;;;0.70;99.90;;;;;;5114933;28;20043;-81
2023/01/20 04:20:45;;;;;;;20.25;8.32;;;0.70;99.90;;;;;;5097581;28;20131;-82
2023/01/20 04:23:20;;;;;;;26.48;11.60;;;1.00;99.90;;;;;;5098203;28;20040;-82
2023/01/20 04:25:46;;;;;;;26.67;11.27;;;0.70;99.90;;;;;;5114833;28;20053;-82
2023/01/20 04:28:12;;;;;;;27.20;11.70;;;0.70;99.90;;;;;;5096944;28;20122;-82
2023/01/20 04:30:38;;;;;;;22.98;8.85;;;0.70;99.90;;;;;;5115186;28;20040;-81
2023/01/20 04:33:03;;;;;;;28.02;11.35;;;0.70;99.90;;;;;;5097517;28;20035;-81
2023/01/20 04:35:29;;;;;;;22.25;9.10;;;1.00;99.90;;;;;;4754569;28;10000270;-82
2023/01/20 04:37:55;;;;;;;29.95;11.27;;;0.60;99.90;;;;;;5078386;28;20040;-82
2023/01/20 04:40:20;;;;;;;27.40;11.10;;;0.60;99.90;;;;;;5085001;27;20076;-84
2023/01/20 04:42:46;;;;;;;35.95;12.07;;;0.60;99.90;;;;;;5115466;27;20043;-82
2023/01/20 04:45:16;;;;;;;29.50;11.95;;;0.60;99.90;;;;;;5115849;27;20375;-83
2023/01/20 04:47:42;;;;;;;30.50;11.65;;;0.60;99.90;;;;;;5132254;27;20091;-82
2023/01/20 04:50:09;;;;;;;38.10;13.93;;;1.10;99.90;;;;;;5132823;27;20047;-83
2023/01/20 04:52:35;;;;;;;24.15;9.52;;;0.60;99.90;;;;;;5115296;27;20038;-82
2023/01/20 04:55:01;;;;;;;34.53;11.75;;;0.50;99.90;;;;;;5115124;27;20039;-82
2023/01/20 04:57:27;;;;;;;31.88;12.13;;;1.40;99.90;;;;;;5098895;27;20127;-83
2023/01/20 04:59:53;;;;;;;35.35;12.63;;;1.50;99.90;;;;;;5132358;27;20072;-82
2023/01/20 05:02:18;;;;;;;32.67;12.07;;;0.50;99.90;;;;;;5098687;27;20043;-82
2023/01/20 05:04:44;;;;;;;30.20;11.65;;;0.50;99.90;;;;;;5098416;27;20049;-82
2023/01/20 05:07:10;;;;;;;28.27;10.38;;;0.50;99.90;;;;;;5115641;27;20383;-82
2023/01/20 05:09:36;;;;;;;36.53;13.75;;;0.70;99.90;;;;;;5132313;27;20039;-82
2023/01/20 05:12:02;;;;;;;35.10;12.90;;;0.50;99.90;;;;;;5115024;27;20117;-84
2023/01/20 05:14:28;;;;;;;30.00;11.02;;;0.50;99.90;;;;;;5115621;27;20150;-82
2023/01/20 05:16:53;;;;;;;33.92;12.07;;;0.60;99.90;;;;;;5132054;27;20490;-83
2023/01/20 05:19:19;;;;;;;37.17;13.07;;;0.50;99.90;;;;;;5115502;27;20039;-82
2023/01/20 05:21:45;;;;;;;32.88;12.60;;;1.40;99.90;;;;;;5131765;27;20062;-82
2023/01/20 05:24:11;;;;;;;34.15;12.60;;;0.50;99.90;;;;;;5115124;27;20047;-81
2023/01/20 05:26:36;;;;;;;30.67;11.15;;;1.30;99.90;;;;;;5115386;27;20058;-82
2023/01/20 05:29:02;;;;;;;33.80;11.98;;;0.50;99.90;;;;;;5131935;27;20042;-82
2023/01/20 05:31:28;;;;;;;29.48;10.45;;;1.40;99.90;;;;;;5115879;27;20498;-81
2023/01/20 05:33:54;;;;;;;32.35;11.90;;;0.50;99.90;;;;;;5116889;27;20049;-81
2023/01/20 05:36:20;;;;;;;26.42;9.85;;;0.50;99.90;;;;;;5117120;27;20035;-80
2023/01/20 05:38:45;;;;;;;28.33;10.48;;;0.50;99.90;;;;;;5116943;27;20158;-81
2023/01/20 05:41:11;;;;;;;25.60;10.52;;;0.50;99.90;;;;;;5116480;27;20078;-80
2023/01/20 05:43:37;;;;;;;24.23;8.95;;;0.70;99.90;;;;;;5134023;27;20035;-82
2023/01/20 05:46:04;;;;;;;30.40;11.70;;;0.50;99.90;;;;;;5116701;27;20463;-81
2023/01/20 05:48:30;;;;;;;33.75;11.30;;;0.50;99.90;;;;;;5099845;27;20046;-81
2023/01/20 05:50:55;;;;;;;26.38;9.70;;;1.60;99.90;;;;;;5133715;27;20043;-80
2023/01/20 05:53:21;;;;;;;29.55;11.23;;;0.50;99.90;;;;;;5133467;27;20080;-81
2023/01/20 05:55:47;;;;;;;19.25;6.68;;;0.50;99.90;;;;;;5133766;27;20130;-81
2023/01/20 05:58:13;;;;;;;28.15;10.30;;;1.30;99.90;;;;;;5116345;27;20078;-80
2023/01/20 06:00:39;;;;;;;30.25;11.77;;;0.50;99.90;;;;;;5116628;27;20191;-81
2023/01/20 06:03:05;;;;;;;29.13;11.00;;;1.30;99.90;;;;;;5133504;27;20049;-80
2023/01/20 06:05:31;;;;;;;31.75;11.10;;;0.60;99.90;;;;;;5133633;27;20042;-81
2023/01/20 06:07:57;;;;;;;27.92;10.60;;;1.20;99.90;;;;;;5116275;27;20038;-82
2023/01/20 06:10:26;;;;;;;25.95;9.82;;;0.50;99.90;;;;;;5116058;27;20066;-82
2023/01/20 06:12:53;;;;;;;30.17;10.45;;;1.10;99.90;;;;;;5116261;27;20539;-82
2023/01/20 06:15:20;;;;;;;20.83;7.20;;;0.60;99.90;;;;;;5119536;27;20046;-82
2023/01/20 06:17:46;;;;;;;23.77;9.40;;;1.50;99.90;;;;;;5119896;27;20050;-81
2023/01/20 06:20:11;;;;;;;25.90;9.50;;;1.50;99.90;;;;;;5119532;27;20039;-81
2023/01/20 06:22:37;;;;;;;23.50;9.43;;;0.50;99.90;;;;;;5136777;27;20031;-81
2023/01/20 06:25:03;;;;;;;17.05;6.35;;;0.50;99.90;;;;;;5136570;27;20068;-80
2023/01/20 06:27:29;;;;;;;19.10;7.28;;;0.50;99.90;;;;;;5136731;27;20046;-82
2023/01/20 06:29:55;;;;;;;27.92;9.85;;;0.80;99.90;;;;;;5119475;27;20103;-85
2023/01/20 06:32:21;;;;;;;21.98;8.93;;;0.50;99.90;;;;;;5119483;27;20039;-81
2023/01/20 06:34:46;;;;;;;25.65;10.10;;;0.60;99.90;;;;;;5136732;27;20053;-81
2023/01/20 06:37:12;;;;;;;23.63;8.57;;;1.40;99.90;;;;;;5102376;27;20121;-81
2023/01/20 06:39:39;;;;;;;29.15;10.30;;;0.50;99.90;;;;;;5119538;27;20039;-83
2023/01/20 06:42:05;;;;;;;21.13;7.90;;;0.50;99.90;;;;;;5102378;27;20070;-81
2023/01/20 06:44:32;;;;;;;30.40;10.13;;;1.30;99.90;;;;;;5136274;27;20085;-82
2023/01/20 06:46:58;;;;;;;25.52;9.65;;;0.80;99.90;;;;;;5119153;27;20486;-82
2023/01/20 06:49:24;;;;;;;23.42;9.32;;;0.50;99.90;;;;;;5136509;27;20046;-82
2023/01/20 06:51:50;;;;;;;26.77;10.20;;;0.60;99.90;;;;;;5103680;27;20046;-82
2023/01/20 06:54:16;;;;;;;25.17;9.32;;;0.60;99.90;;;;;;5140690;27;20049;-82
2023/01/20 06:56:42;;;;;;;27.23;10.18;;;1.40;99.90;;;;;;5140425;27;20458;-82
2023/01/20 06:59:09;;;;;;;27.85;9.65;;;0.60;99.90;;;;;;5123325;27;20042;-82
2023/01/20 07:01:35;;;;;;;19.88;8.10;;;0.60;99.90;;;;;;5123526;27;20042;-81
2023/01/20 07:04:01;;;;;;;27.60;10.35;;;1.10;99.90;;;;;;5140405;27;20035;-83
2023/01/20 07:06:30;;;;;;;26.27;10.73;;;0.60;99.90;;;;;;5123125;27;20579;-81
2023/01/20 07:08:57;;;;;;;28.42;10.70;;;1.00;99.90;;;;;;5123374;27;20046;-82
2023/01/20 07:11:23;;;;;;;25.88;9.98;;;0.70;99.90;;;;;;5106198;27;20130;-81
2023/01/20 07:13:48;;;;;;;28.98;11.15;;;0.90;99.90;;;;;;5123366;27;20472;-81
2023/01/20 07:16:15;;;;;;;24.60;10.25;;;0.60;99.90;;;;;;5139839;27;20046;-82
2023/01/20 07:18:41;;;;;;;22.00;8.23;;;0.60;99.90;;;;;;5123204;27;20130;-81
2023/01/20 07:21:10;;;;;;;27.50;10.63;;;0.60;99.90;;;;;;5122874;27;20570;-81
2023/01/20 07:23:36;;;;;;;30.45;11.32;;;0.60;99.90;;;;;;5123012;27;20050;-81
2023/01/20 07:26:07;;;;;;;31.70;11.93;;;1.00;99.90;;;;;;5122720;27;20069;-81
2023/01/20 07:28:34;;;;;;;30.30;10.50;;;1.50;99.90;;;;;;5122690;27;20042;-81
2023/01/20 07:31:05;;;;;;;31.13;11.40;;;0.70;99.90;;;;;;5122230;27;20422;-81
2023/01/20 07:33:31;;;;;;;31.02;10.93;;;0.60;99.90;;;;;;5122048;27;20110;-81
2023/01/20 07:35:57;;;;;;;27.10;10.07;;;1.00;99.90;;;;;;5139385;27;20085;-81
2023/01/20 07:38:23;;;;;;;31.55;12.07;;;0.70;99.90;;;;;;5139104;27;20043;-81
2023/01/20 07:40:49;;;;;;;34.38;12.95;;;1.30;99.90;;;;;;5122251;27;20128;-81
2023/01/20 07:43:14;;;;;;;36.67;14.50;;;1.40;99.90;;;;;;5122099;27;20474;-81
2023/01/20 07:45:40;;;;;;;30.00;11.32;;;0.70;99.90;;;;;;5104635;27;20064;-81
2023/01/20 07:48:06;;;;;;;38.15;13.40;;;1.60;99.90;;;;;;5121877;27;20042;-81
2023/01/20 07:50:34;;;;;;;34.13;12.80;;;0.70;99.90;;;;;;5122568;27;20129;-81
2023/01/20 07:52:59;;;;;;;30.67;12.10;;;0.70;99.90;;;;;;5139408;27;20078;-81
2023/01/20 07:55:25;;;;;;;32.95;13.43;;;1.10;99.90;;;;;;5105320;27;20411;-80
2023/01/20 07:57:51;;;;;;;26.80;10.18;;;1.40;99.90;;;;;;5139514;27;20083;-80
2023/01/20 08:00:18;;;;;;;38.08;14.07;;;1.30;99.90;;;;;;5122083;27;20047;-81
2023/01/20 08:02:43;;;;;;;35.00;14.05;;;0.70;99.90;;;;;;5139348;27;20043;-81
2023/01/20 08:05:10;;;;;;;34.05;13.68;;;0.70;99.90;;;;;;5139226;27;20043;-82
2023/01/20 08:07:35;;;;;;;41.13;14.40;;;0.70;99.90;;;;;;5122285;27;20042;-80
2023/01/20 08:10:01;;;;;;;33.88;12.65;;;0.80;99.90;;;;;;5139162;27;20053;-81
2023/01/20 08:12:28;;;;;;;36.35;14.23;;;1.60;99.90;;;;;;5121995;27;20030;-81
2023/01/20 08:14:54;;;;;;;36.08;13.13;;;0.80;99.90;;;;;;5122151;27;20038;-82
2023/01/20 08:17:19;;;;;;;37.45;14.18;;;0.80;99.90;;;;;;5138331;27;20382;-82
2023/01/20 08:19:45;;;;;;;39.65;14.23;;;0.80;99.90;;;;;;5104975;27;20069;-81
2023/01/20 08:22:11;;;;;;;42.30;14.25;;;0.80;99.90;;;;;;5122002;27;20064;-80
2023/01/20 08:24:37;;;;;;;39.03;13.48;;;0.80;99.90;;;;;;5104801;27;20035;-81
2023/01/20 08:27:02;;;;;;;48.00;16.25;;;0.80;99.90;;;;;;5104936;27;20078;-81
2023/01/20 08:29:30;;;;;;;35.60;13.68;;;1.10;99.90;;;;;;5121522;27;20039;-81
2023/01/20 08:31:59;;;;;;;41.78;15.20;;;0.80;99.90;;;;;;5121561;27;20423;-81
2023/01/20 08:34:26;;;;;;;37.55;13.70;;;0.80;99.90;;;;;;5138686;27;20078;-81
2023/01/20 08:36:53;;;;;;;41.88;16.20;;;0.80;99.90;;;;;;5121693;27;20125;-81
2023/01/20 08:39:19;;;;;;;43.42;16.00;;;0.90;99.90;;;;;;5138688;27;20046;-81
2023/01/20 08:41:46;;;;;;;47.75;17.38;;;0.90;99.90;;;;;;5121513;27;20039;-81
2023/01/20 08:44:14;;;;;;;43.17;15.23;;;0.90;99.90;;;;;;5138722;27;20423;-81
2023/01/20 08:46:40;;;;;;;45.88;16.27;;;0.90;99.90;;;;;;5120936;27;20347;-82
2023/01/20 08:49:07;;;;;;;45.50;16.15;;;1.20;99.90;;;;;;5121104;27;20049;-81
2023/01/20 08:51:33;;;;;;;44.90;15.23;;;1.40;99.90;;;;;;5120864;27;20071;-80
2023/01/20 08:54:00;;;;;;;44.88;17.27;;;1.00;99.90;;;;;;5121333;27;20087;-81
2023/01/20 08:56:27;;;;;;;44.30;15.85;;;1.00;99.90;;;;;;5121015;27;20077;-82
2023/01/20 08:58:53;;;;;;;43.83;16.20;;;1.60;99.90;;;;;;5121214;27;20462;-81
2023/01/20 09:01:24;;;;;;;45.90;17.30;;;1.60;99.90;;;;;;5119445;27;20047;-82
2023/01/20 09:03:50;;;;;;;46.45;16.73;;;1.50;99.90;;;;;;5136516;27;20428;-82
2023/01/20 09:06:18;;;;;;;45.72;15.85;;;1.70;99.90;;;;;;4765734;27;9999945;-82
2023/01/20 09:08:44;;;;;;;43.75;16.08;;;1.50;99.90;;;;;;5136181;27;20051;-82
2023/01/20 09:11:16;;;;;;;44.28;16.30;;;1.60;99.90;;;;;;5119034;27;20158;-82
2023/01/20 09:13:42;;;;;;;39.78;13.98;;;1.10;99.90;;;;;;5134907;27;20031;-82
2023/01/20 09:16:11;;;;;;;40.75;15.25;;;1.10;99.90;;;;;;5131429;27;20550;-82
2023/01/20 09:18:37;;;;;;;45.90;15.90;;;1.10;99.90;;;;;;5114986;27;20495;-83
2023/01/20 09:21:06;;;;;;;42.40;15.68;;;1.20;99.90;;;;;;5115059;27;20078;-81
2023/01/20 09:23:33;;;;;;;42.63;16.13;;;1.20;99.90;;;;;;5131989;27;20666;-82
2023/01/20 09:26:00;;;;;;;44.53;16.77;;;2.20;99.90;;;;;;5114529;27;20047;-82
2023/01/20 09:28:26;;;;;;;42.00;15.25;;;2.20;99.90;;;;;;5114717;27;20047;-81
2023/01/20 09:31:05;;;;;;;46.20;16.52;;;1.30;99.90;;;;;;5132102;27;20043;-83
2023/01/20 09:33:34;;;;;;;45.63;16.35;;;1.30;99.90;;;;;;5131560;27;20046;-82
2023/01/20 09:36:01;;;;;;;43.50;16.63;;;1.40;99.90;;;;;;5131993;27;20055;-84
2023/01/20 09:44:27;;;;;;;44.83;16.23;;;1.30;99.90;;;;;;5131778;27;20046;-82
2023/01/20 09:47:20;;;;;;;44.87;16.73;;;1.30;99.90;;;;;;5131860;27;20349;-82
2023/01/20 09:53:07;;;;;;;45.17;17.17;;;1.40;99.90;;;;;;5131282;27;20050;-83
2023/01/20 09:55:48;;;;;;;47.60;17.60;;;1.40;99.90;;;;;;5114186;27;20074;-83
2023/01/20 09:58:19;;;;;;;44.28;17.42;;;1.50;99.90;;;;;;5131482;27;20039;-82
2023/01/20 10:00:46;;;;;;;;;;;1.50;99.90;;;;;;5114245;27;20056;-82
2023/01/20 10:03:35;;;;;;;48.30;17.17;;;2.40;99.90;;;;;;5131311;27;19919;-83
2023/01/20 10:06:25;;;;;;;43.25;15.90;;;1.50;99.90;;;;;;5131052;27;20108;-82
2023/01/20 10:08:57;;;;;;;45.05;17.27;;;1.60;99.90;;;;;;5131052;27;20050;-83
2023/01/20 10:11:27;;;;;;;39.28;15.02;;;1.60;99.90;;;;;;5131423;27;20112;-83
2023/01/20 10:14:13;;;;;;;31.40;11.52;;;1.60;99.90;;;;;;5130240;27;20139;-83
2023/01/20 10:16:54;;;;;;;35.20;13.18;;;1.50;99.90;;;;;;5113269;27;20507;-80
2023/01/20 10:19:31;;;;;;;36.70;14.43;;;1.60;99.90;;;;;;5114166;27;20081;-82
2023/01/20 10:22:12;;;;;;;40.55;15.30;;;1.50;99.90;;;;;;5131132;27;20352;-83
2023/01/20 10:25:01;;;;;;;42.45;16.15;;;1.60;99.90;;;;;;5113751;27;20081;-81
2023/01/20 10:27:31;;;;;;;45.78;16.40;;;1.60;99.90;;;;;;5120056;27;20040;-81
2023/01/20 10:30:06;;;;;;;37.70;14.90;;;2.50;99.90;;;;;;5110368;28;20043;-82
2023/01/20 10:32:47;;;;;;;45.53;16.40;;;1.60;99.90;;;;;;5110364;28;20089;-86
2023/01/20 10:35:21;;;;;;;43.85;16.15;;;1.90;99.90;;;;;;5093163;28;20545;-82
2023/01/20 10:37:47;;;;;;;50.38;18.17;;;1.50;99.90;;;;;;5092704;28;20058;-82
2023/01/20 10:40:28;;;;;;;48.67;18.23;;;1.70;99.90;;;;;;5110312;28;20040;-82
2023/01/20 10:43:00;;;;;;;41.72;14.57;;;1.60;99.90;;;;;;5093232;28;20464;-82
2023/01/20 10:45:30;;;;;;;;;;;1.60;99.90;;;;;;5110848;28;20047;-81
2023/01/20 10:48:43;;;;;;;40.97;16.17;;;2.00;99.90;;;;;;5093071;28;20355;-82
2023/01/20 10:51:28;;;;;;;43.53;15.77;;;1.60;99.90;;;;;;5085488;28;20142;-82
2023/01/20 10:54:06;;;;;;;43.80;15.40;;;1.60;99.90;;;;;;5109633;28;20075;-81
2023/01/20 10:56:57;;;;;;;43.78;15.63;;;1.60;99.90;;;;;;5110239;28;20086;-82
2023/01/20 10:59:33;;;;;;;35.47;14.20;;;1.60;99.90;;;;;;5088942;28;20056;-82
2023/01/20 11:02:13;;;;;;;42.30;16.95;;;2.30;99.90;;;;;;5087761;28;20472;-83
2023/01/20 11:04:40;;;;;;;40.67;15.38;;;1.60;99.90;;;;;;5076848;28;20106;-81
2023/01/20 11:07:14;;;;;;;37.08;15.00;;;1.60;99.90;;;;;;5096774;28;20039;-82
2023/01/20 11:09:41;;;;;;;44.13;16.33;;;1.60;99.90;;;;;;5113431;28;20058;-83
2023/01/20 11:12:20;;;;;;;42.05;16.90;;;2.50;99.90;;;;;;5113478;28;20479;-81
2023/01/20 11:14:46;;;;;;;42.53;16.52;;;1.50;99.90;;;;;;5094645;28;20356;-80
2023/01/20 11:17:15;;;;;;;41.45;16.52;;;1.50;99.90;;;;;;5128471;28;20479;-81
2023/01/20 11:19:47;;;;;;;43.85;16.15;;;2.20;99.90;;;;;;5113093;28;20051;-82
2023/01/20 11:22:19;;;;;;;43.40;16.58;;;1.50;99.90;;;;;;5130734;28;20116;-81
2023/01/20 11:24:46;;;;;;;43.05;16.90;;;1.60;99.90;;;;;;5113392;28;20077;-81
2023/01/20 11:27:19;;;;;;;46.97;17.45;;;2.40;99.90;;;;;;5113067;28;20108;-82
2023/01/20 11:29:51;;;;;;;43.17;17.63;;;1.70;99.90;;;;;;5130561;28;20551;-82
2023/01/20 11:32:23;;;;;;;44.95;17.90;;;1.70;99.90;;;;;;5113283;28;20046;-82
2023/01/20 11:34:49;;;;;;;44.05;16.83;;;1.70;99.90;;;;;;5130372;28;20049;-81
2023/01/20 11:37:24;;;;;;;42.45;17.05;;;1.70;99.90;;;;;;5096451;27;20043;-82
2023/01/20 11:39:52;;;;;;;39.95;15.93;;;1.80;99.90;;;;;;5117144;27;20467;-83
2023/01/20 11:42:23;;;;;;;41.55;15.88;;;1.70;99.90;;;;;;5117122;27;20042;-82
2023/01/20 11:44:57;;;;;;;43.88;15.50;;;1.80;99.90;;;;;;5133976;27;20101;-83
2023/01/20 11:47:30;;;;;;;43.17;16.55;;;1.80;99.90;;;;;;5134217;27;20039;-83
2023/01/20 11:50:08;;;;;;;42.42;17.33;;;1.80;11.70;;;;;;5133345;27;20480;-84
2023/01/20 11:52:43;;;;;;;43.78;16.33;;;2.00;99.90;;;;;;5133902;27;20042;-82
2023/01/20 11:55:14;;;;;;;42.08;16.08;;;1.80;1.00;;;;;;5116530;27;20395;-82
2023/01/20 11:57:51;;;;;;;43.00;16.75;;;2.50;1.00;;;;;;5116847;27;20131;-81
2023/01/20 12:00:30;;;;;;;50.67;17.45;;;1.80;1.00;;;;;;5116830;27;20054;-81
2023/01/20 12:03:33;;;;;;;45.53;18.40;;;1.80;1.00;;;;;;5133316;27;20047;-81
2023/01/20 12:05:59;;;;;;;43.80;17.20;;;1.80;1.00;;;;;;5133230;27;20047;-80
2023/01/20 12:08:57;;;;;;;42.03;16.35;;;1.80;99.90;;;;;;5133627;27;20080;-80
2023/01/20 12:11:31;;;;;;;41.20;16.10;;;1.80;99.90;;;;;;5113372;27;20429;-80
2023/01/20 12:14:24;;;;;;;40.15;14.98;;;1.90;1.00;;;;;;5115649;27;20464;-82
2023/01/20 12:17:02;;;;;;;41.40;16.13;;;1.90;1.00;;;;;;5132592;27;20059;-83
2023/01/20 12:19:38;;;;;;;38.15;15.18;;;2.20;99.90;;;;;;5116341;27;20047;-82
2023/01/20 12:22:12;;;;;;;41.13;15.57;;;1.80;99.90;;;;;;5116225;27;20096;-81
2023/01/20 12:27:48;;;;;;;37.47;15.88;;;1.80;99.90;;;;;;5133249;27;20043;-79
2023/01/20 12:30:37;;;;;;;44.03;16.42;;;1.90;99.90;;;;;;5133256;27;20732;-80
2023/01/20 12:33:03;;;;;;;40.92;16.10;;;1.80;99.90;;;;;;5132979;27;20046;-79
2023/01/20 12:35:37;;;;;;;39.45;15.90;;;1.80;99.90;;;;;;5116030;27;20474;-79
2023/01/20 12:38:07;;;;;;;41.55;17.30;;;2.80;99.90;;;;;;5132579;27;20044;-79
2023/01/20 12:40:43;;;;;;;39.85;15.95;;;1.90;99.90;;;;;;5116147;27;20043;-80
2023/01/20 12:43:25;;;;;;;46.70;17.17;;;1.80;1.00;;;;;;5133128;27;20390;-80
2023/01/20 12:46:09;;;;;;;42.65;16.20;;;1.90;1.00;;;;;;5132644;27;20378;-80
2023/01/20 12:49:03;;;;;;;50.17;16.52;;;1.80;1.00;;;;;;5115425;27;20528;-81
2023/01/20 12:52:09;;;;;;;37.60;14.45;;;2.00;99.90;;;;;;5132893;27;20122;-79
2023/01/20 12:55:23;;;;;;;41.15;15.50;;;1.80;99.90;;;;;;5097650;27;20182;-79
2023/01/20 12:57:52;;;;;;;34.90;14.57;;;1.90;99.90;;;;;;5098532;27;20047;-79
2023/01/20 13:00:50;;;;;;;51.00;16.27;;;1.90;99.90;;;;;;5132479;27;20129;-79
2023/01/20 13:04:00;;;;;;;41.90;16.17;;;2.00;99.90;;;;;;5087520;27;20059;-79
2023/01/20 13:06:37;;;;;;;43.35;15.88;;;2.00;99.90;;;;;;5115307;27;20039;-79
2023/01/20 13:09:21;;;;;;;40.10;15.13;;;2.10;99.90;;;;;;5094863;28;20055;-79
2023/01/20 13:11:57;;;;;;;42.78;15.60;;;2.00;99.90;;;;;;5111551;28;20046;-79
2023/01/20 13:14:42;;;;;;;38.78;15.00;;;2.10;99.90;;;;;;5111493;28;20039;-80